Key West Nas /Boca Chica Field/ Airport
KNQX : now visible

Airfield :











YOU CAN JOIN US ON...

 
LOGIN :

Register | Disclaimer

   EN    FR    IT 

 









Legend :    VFR   Marginal VFR   IFR   Intensive IFR   Very Intensive IFR
Visi :
Ceiling :
>= 8 km
>= 3000ft
5 to 8 km
1000 to 3000 ft
1500m to 5 km
500 to 1000 ft
800 to 1500m
200 to 500 ft
< 800m
< 200 ft
Symbols :   Thunderstorms  Fog  Heavy snow  Heavy precipitations  Wind > 20 kt






- Airport Elevation : 6 ft


KNQX - Key West Nas /Boca Chica Field/

CURRENT METAR :
  • 190553Z AUTO 10014KT 10SM FEW050 BKN075 30/28 A2991 RMK AO2 SLP125 60013 T03000278 10311 20283 50000 $

EXPIRED METARs :
  • 190453Z AUTO 08011KT 10SM FEW080 SCT090 29/27 A2991 RMK AO2 PK WND 10031/0420 RAB16E35 SLP128 P0013 T02890272 403390283 $
  • 190436Z AUTO 09015G25KT 10SM FEW016 SCT038 BKN090 28/27 A2991 RMK AO2 PK WND 10031/0420 RAB16E35 P0013 T02830272 $
  • 190429Z AUTO 09017G31KT 2 1/2SM -RA BR FEW013 SCT023 BKN039 29/28 A2991 RMK AO2 PK WND 10031/0420 RAB16 P0013 T02890278 $
  • 190353Z AUTO 09016KT 10SM FEW022 FEW070 31/28 A2992 RMK AO2 SLP130 T03060278 $
  • 190253Z AUTO 09018KT 10SM SCT018 SCT024 31/27 A2991 RMK AO2 SLP125 T03110272 51011 $
  • 190232Z AUTO 09017G23KT 10SM BKN020 31/27 A2991 RMK AO2 T03110272 $
  • 190153Z 09020KT 10SM FEW023 FEW250 31/27 A2990 RMK AO2 PK WND 09026/0105 SLP125 T03110272 $

TAF TAF KNQX
Valid from the 18 at 23:00 until the 19 at 23:00 UTC


1823/1923 09018G27KT 9999 SCT023 BKN250 QNH2981INS
FM191200 1100816G25KT 9999 VCSH SCT023 SCT250 QNH2987INS AUTOMATED SENSOR METWATCH 1902 TIL 2010 TX32/1919Z TN29/1911Z FN20109
KZMA FIR / North America



MET'MAP, your aeronautical weather chart ! - Copyright ORBIFLY December 2007 - Disclaimer

ORBIFLY MET'MAP TEAM :

Programming & Development : Alexandra Zaïnal
Original concept : Baudouin d'Aumeries
Technical & hardware support : Manuel Goepfert
Assistance : Marc-Olivier Méhu




SOURCES & CREDITS :

   NOAA       Earth
Advisory